sensor_id;sensor_type;location;lat;lon;timestamp;P1;durP1;ratioP1;P2;durP2;ratioP2
41693;SDS011;27377;50.666;9.150;2022-08-05T00:01:17;7.03;;;2.42;;
41693;SDS011;27377;50.666;9.150;2022-08-05T00:04:03;4.22;;;2.40;;
41693;SDS011;27377;50.666;9.150;2022-08-05T00:06:47;4.63;;;2.30;;
41693;SDS011;27377;50.666;9.150;2022-08-05T00:09:31;6.70;;;2.50;;
41693;SDS011;27377;50.666;9.150;2022-08-05T00:12:15;5.55;;;2.20;;
41693;SDS011;27377;50.666;9.150;2022-08-05T00:14:59;6.33;;;2.40;;
41693;SDS011;27377;50.666;9.150;2022-08-05T00:17:43;5.13;;;2.33;;
41693;SDS011;27377;50.666;9.150;2022-08-05T00:20:27;6.28;;;2.40;;
41693;SDS011;27377;50.666;9.150;2022-08-05T00:23:11;5.97;;;2.50;;
41693;SDS011;27377;50.666;9.150;2022-08-05T00:25:55;8.15;;;2.45;;
41693;SDS011;27377;50.666;9.150;2022-08-05T00:28:40;7.33;;;2.60;;
41693;SDS011;27377;50.666;9.150;2022-08-05T00:31:24;8.13;;;2.50;;
41693;SDS011;27377;50.666;9.150;2022-08-05T00:34:08;4.80;;;2.20;;
41693;SDS011;27377;50.666;9.150;2022-08-05T00:36:52;6.50;;;2.42;;
41693;SDS011;27377;50.666;9.150;2022-08-05T00:39:36;8.55;;;2.47;;
41693;SDS011;27377;50.666;9.150;2022-08-05T00:42:31;5.82;;;2.30;;
41693;SDS011;27377;50.666;9.150;2022-08-05T00:45:17;5.72;;;2.35;;
41693;SDS011;27377;50.666;9.150;2022-08-05T00:48:01;7.03;;;2.50;;
41693;SDS011;27377;50.666;9.150;2022-08-05T00:50:46;5.00;;;2.07;;
41693;SDS011;27377;50.666;9.150;2022-08-05T00:53:31;7.43;;;2.80;;
41693;SDS011;27377;50.666;9.150;2022-08-05T00:56:16;5.55;;;2.28;;
41693;SDS011;27377;50.666;9.150;2022-08-05T00:59:00;6.03;;;2.53;;
41693;SDS011;27377;50.666;9.150;2022-08-05T01:01:44;6.27;;;2.30;;
41693;SDS011;27377;50.666;9.150;2022-08-05T01:04:28;6.68;;;2.50;;
41693;SDS011;27377;50.666;9.150;2022-08-05T01:07:12;7.35;;;2.65;;
41693;SDS011;27377;50.666;9.150;2022-08-05T01:09:56;5.25;;;2.50;;
41693;SDS011;27377;50.666;9.150;2022-08-05T01:12:44;5.85;;;2.58;;
41693;SDS011;27377;50.666;9.150;2022-08-05T01:15:33;7.80;;;2.83;;
41693;SDS011;27377;50.666;9.150;2022-08-05T01:18:22;7.97;;;2.80;;
41693;SDS011;27377;50.666;9.150;2022-08-05T01:21:11;7.05;;;2.80;;
41693;SDS011;27377;50.666;9.150;2022-08-05T01:30:39;7.18;;;2.80;;
41693;SDS011;27377;50.666;9.150;2022-08-05T01:33:30;7.45;;;2.67;;
41693;SDS011;27377;50.666;9.150;2022-08-05T01:36:18;6.37;;;2.63;;
41693;SDS011;27377;50.666;9.150;2022-08-05T01:39:05;6.57;;;2.70;;
41693;SDS011;27377;50.666;9.150;2022-08-05T01:41:49;9.48;;;2.80;;
41693;SDS011;27377;50.666;9.150;2022-08-05T01:44:34;9.63;;;3.00;;
41693;SDS011;27377;50.666;9.150;2022-08-05T01:47:20;11.43;;;3.28;;
41693;SDS011;27377;50.666;9.150;2022-08-05T01:50:07;11.43;;;3.40;;
41693;SDS011;27377;50.666;9.150;2022-08-05T01:53:00;10.90;;;3.70;;
41693;SDS011;27377;50.666;9.150;2022-08-05T01:55:46;14.57;;;4.60;;
41693;SDS011;27377;50.666;9.150;2022-08-05T01:58:32;8.25;;;3.65;;
41693;SDS011;27377;50.666;9.150;2022-08-05T02:01:17;13.15;;;4.30;;
41693;SDS011;27377;50.666;9.150;2022-08-05T02:04:03;8.48;;;3.35;;
41693;SDS011;27377;50.666;9.150;2022-08-05T02:06:48;10.60;;;3.92;;
41693;SDS011;27377;50.666;9.150;2022-08-05T02:09:33;8.80;;;3.83;;
41693;SDS011;27377;50.666;9.150;2022-08-05T02:12:19;8.38;;;3.80;;
41693;SDS011;27377;50.666;9.150;2022-08-05T02:17:57;10.57;;;3.60;;
41693;SDS011;27377;50.666;9.150;2022-08-05T02:21:00;8.07;;;3.55;;
41693;SDS011;27377;50.666;9.150;2022-08-05T02:23:49;7.97;;;3.78;;
41693;SDS011;27377;50.666;9.150;2022-08-05T02:26:39;7.28;;;3.80;;
41693;SDS011;27377;50.666;9.150;2022-08-05T02:29:29;6.18;;;3.45;;
41693;SDS011;27377;50.666;9.150;2022-08-05T02:32:17;8.75;;;3.80;;
41693;SDS011;27377;50.666;9.150;2022-08-05T02:35:04;9.35;;;3.90;;
41693;SDS011;27377;50.666;9.150;2022-08-05T02:37:53;7.50;;;3.70;;
41693;SDS011;27377;50.666;9.150;2022-08-05T02:40:39;7.68;;;4.10;;
41693;SDS011;27377;50.666;9.150;2022-08-05T02:43:26;7.80;;;3.97;;
41693;SDS011;27377;50.666;9.150;2022-08-05T02:46:13;8.43;;;4.03;;
41693;SDS011;27377;50.666;9.150;2022-08-05T02:48:58;8.43;;;3.78;;
41693;SDS011;27377;50.666;9.150;2022-08-05T02:51:43;7.88;;;3.92;;
41693;SDS011;27377;50.666;9.150;2022-08-05T02:54:28;7.10;;;3.90;;
41693;SDS011;27377;50.666;9.150;2022-08-05T02:57:14;7.45;;;4.20;;
41693;SDS011;27377;50.666;9.150;2022-08-05T03:00:01;9.63;;;3.93;;
41693;SDS011;27377;50.666;9.150;2022-08-05T03:02:45;7.47;;;4.05;;
41693;SDS011;27377;50.666;9.150;2022-08-05T03:05:31;7.82;;;3.83;;
41693;SDS011;27377;50.666;9.150;2022-08-05T03:08:16;10.00;;;4.50;;
41693;SDS011;27377;50.666;9.150;2022-08-05T03:11:01;7.65;;;3.85;;
41693;SDS011;27377;50.666;9.150;2022-08-05T03:13:45;7.00;;;4.13;;
41693;SDS011;27377;50.666;9.150;2022-08-05T03:16:30;8.75;;;4.10;;
41693;SDS011;27377;50.666;9.150;2022-08-05T03:19:14;8.85;;;4.22;;
41693;SDS011;27377;50.666;9.150;2022-08-05T03:21:58;7.60;;;4.00;;
41693;SDS011;27377;50.666;9.150;2022-08-05T03:24:42;8.07;;;4.05;;
41693;SDS011;27377;50.666;9.150;2022-08-05T03:27:28;8.10;;;3.80;;
41693;SDS011;27377;50.666;9.150;2022-08-05T03:30:12;7.63;;;4.18;;
41693;SDS011;27377;50.666;9.150;2022-08-05T03:32:56;8.13;;;3.83;;
41693;SDS011;27377;50.666;9.150;2022-08-05T03:35:43;8.07;;;4.00;;
41693;SDS011;27377;50.666;9.150;2022-08-05T03:38:29;9.85;;;4.18;;
41693;SDS011;27377;50.666;9.150;2022-08-05T03:41:14;7.13;;;3.87;;
41693;SDS011;27377;50.666;9.150;2022-08-05T03:43:59;8.00;;;3.83;;
41693;SDS011;27377;50.666;9.150;2022-08-05T03:46:43;9.18;;;4.10;;
41693;SDS011;27377;50.666;9.150;2022-08-05T03:49:27;6.90;;;3.63;;
41693;SDS011;27377;50.666;9.150;2022-08-05T03:52:13;9.68;;;4.10;;
41693;SDS011;27377;50.666;9.150;2022-08-05T03:55:06;7.50;;;3.57;;
41693;SDS011;27377;50.666;9.150;2022-08-05T03:57:53;7.07;;;3.78;;
41693;SDS011;27377;50.666;9.150;2022-08-05T04:00:39;8.63;;;4.20;;
41693;SDS011;27377;50.666;9.150;2022-08-05T04:03:24;6.88;;;3.70;;
41693;SDS011;27377;50.666;9.150;2022-08-05T04:06:10;7.77;;;4.00;;
41693;SDS011;27377;50.666;9.150;2022-08-05T04:08:54;8.77;;;4.50;;
41693;SDS011;27377;50.666;9.150;2022-08-05T04:11:39;7.85;;;4.10;;
41693;SDS011;27377;50.666;9.150;2022-08-05T04:14:24;8.03;;;4.27;;
41693;SDS011;27377;50.666;9.150;2022-08-05T04:17:09;8.40;;;4.13;;
41693;SDS011;27377;50.666;9.150;2022-08-05T04:19:54;10.40;;;4.53;;
41693;SDS011;27377;50.666;9.150;2022-08-05T04:22:38;9.93;;;4.30;;
41693;SDS011;27377;50.666;9.150;2022-08-05T04:25:22;8.70;;;4.55;;
41693;SDS011;27377;50.666;9.150;2022-08-05T04:28:06;8.90;;;4.43;;
41693;SDS011;27377;50.666;9.150;2022-08-05T04:30:51;7.78;;;4.20;;
41693;SDS011;27377;50.666;9.150;2022-08-05T04:33:35;9.50;;;4.30;;
41693;SDS011;27377;50.666;9.150;2022-08-05T04:36:19;8.65;;;4.50;;
41693;SDS011;27377;50.666;9.150;2022-08-05T04:39:03;8.07;;;4.45;;
41693;SDS011;27377;50.666;9.150;2022-08-05T04:41:47;9.23;;;4.63;;
41693;SDS011;27377;50.666;9.150;2022-08-05T04:44:32;6.93;;;4.13;;
41693;SDS011;27377;50.666;9.150;2022-08-05T04:47:16;8.10;;;4.10;;
41693;SDS011;27377;50.666;9.150;2022-08-05T04:50:00;7.80;;;4.10;;
41693;SDS011;27377;50.666;9.150;2022-08-05T04:52:44;11.60;;;4.45;;
41693;SDS011;27377;50.666;9.150;2022-08-05T04:55:28;6.85;;;4.20;;
41693;SDS011;27377;50.666;9.150;2022-08-05T04:58:14;9.65;;;4.75;;
41693;SDS011;27377;50.666;9.150;2022-08-05T05:00:59;7.45;;;4.50;;
41693;SDS011;27377;50.666;9.150;2022-08-05T05:03:43;7.30;;;4.63;;
41693;SDS011;27377;50.666;9.150;2022-08-05T05:06:28;6.93;;;4.60;;
41693;SDS011;27377;50.666;9.150;2022-08-05T05:09:12;8.07;;;4.43;;
41693;SDS011;27377;50.666;9.150;2022-08-05T05:11:57;7.45;;;4.40;;
41693;SDS011;27377;50.666;9.150;2022-08-05T05:14:41;8.25;;;4.68;;
41693;SDS011;27377;50.666;9.150;2022-08-05T05:17:25;8.60;;;4.60;;
41693;SDS011;27377;50.666;9.150;2022-08-05T05:20:09;8.07;;;4.68;;
41693;SDS011;27377;50.666;9.150;2022-08-05T05:22:56;8.60;;;4.30;;
41693;SDS011;27377;50.666;9.150;2022-08-05T05:25:40;7.68;;;4.60;;
41693;SDS011;27377;50.666;9.150;2022-08-05T05:28:25;10.30;;;4.68;;
41693;SDS011;27377;50.666;9.150;2022-08-05T05:31:09;6.47;;;4.40;;
41693;SDS011;27377;50.666;9.150;2022-08-05T05:33:53;8.80;;;4.78;;
41693;SDS011;27377;50.666;9.150;2022-08-05T05:36:37;8.63;;;4.93;;
41693;SDS011;27377;50.666;9.150;2022-08-05T05:39:21;9.02;;;4.88;;
41693;SDS011;27377;50.666;9.150;2022-08-05T05:42:05;8.15;;;4.60;;
41693;SDS011;27377;50.666;9.150;2022-08-05T05:44:50;8.70;;;4.80;;
41693;SDS011;27377;50.666;9.150;2022-08-05T05:47:34;8.55;;;5.07;;
41693;SDS011;27377;50.666;9.150;2022-08-05T05:50:18;8.25;;;4.70;;
41693;SDS011;27377;50.666;9.150;2022-08-05T05:53:03;8.40;;;4.70;;
41693;SDS011;27377;50.666;9.150;2022-08-05T05:55:47;7.88;;;4.72;;
41693;SDS011;27377;50.666;9.150;2022-08-05T05:58:31;7.88;;;4.80;;
41693;SDS011;27377;50.666;9.150;2022-08-05T06:01:15;8.35;;;4.95;;
41693;SDS011;27377;50.666;9.150;2022-08-05T06:03:59;9.10;;;4.90;;
41693;SDS011;27377;50.666;9.150;2022-08-05T06:06:43;9.47;;;5.50;;
41693;SDS011;27377;50.666;9.150;2022-08-05T06:09:28;8.68;;;5.50;;
41693;SDS011;27377;50.666;9.150;2022-08-05T06:12:12;8.77;;;5.20;;
41693;SDS011;27377;50.666;9.150;2022-08-05T06:14:57;9.73;;;5.67;;
41693;SDS011;27377;50.666;9.150;2022-08-05T06:17:43;8.57;;;5.75;;
41693;SDS011;27377;50.666;9.150;2022-08-05T06:20:27;8.85;;;5.75;;
41693;SDS011;27377;50.666;9.150;2022-08-05T06:23:12;9.13;;;5.80;;
41693;SDS011;27377;50.666;9.150;2022-08-05T06:25:56;10.75;;;6.57;;
41693;SDS011;27377;50.666;9.150;2022-08-05T06:28:40;8.80;;;5.95;;
41693;SDS011;27377;50.666;9.150;2022-08-05T06:31:24;11.30;;;6.05;;
41693;SDS011;27377;50.666;9.150;2022-08-05T06:34:08;9.40;;;6.00;;
41693;SDS011;27377;50.666;9.150;2022-08-05T06:36:52;9.65;;;6.03;;
41693;SDS011;27377;50.666;9.150;2022-08-05T06:39:36;9.50;;;6.25;;
41693;SDS011;27377;50.666;9.150;2022-08-05T06:42:21;9.33;;;5.90;;
41693;SDS011;27377;50.666;9.150;2022-08-05T06:45:06;11.35;;;6.13;;
41693;SDS011;27377;50.666;9.150;2022-08-05T06:47:51;9.90;;;6.00;;
41693;SDS011;27377;50.666;9.150;2022-08-05T06:50:35;10.70;;;5.90;;
41693;SDS011;27377;50.666;9.150;2022-08-05T06:53:20;12.35;;;6.32;;
41693;SDS011;27377;50.666;9.150;2022-08-05T06:56:04;9.13;;;5.82;;
41693;SDS011;27377;50.666;9.150;2022-08-05T06:58:48;7.95;;;5.80;;
41693;SDS011;27377;50.666;9.150;2022-08-05T07:01:33;8.93;;;6.10;;
41693;SDS011;27377;50.666;9.150;2022-08-05T07:04:17;9.88;;;6.00;;
41693;SDS011;27377;50.666;9.150;2022-08-05T07:07:01;9.40;;;6.47;;
41693;SDS011;27377;50.666;9.150;2022-08-05T07:09:46;10.88;;;6.70;;
41693;SDS011;27377;50.666;9.150;2022-08-05T07:12:30;9.98;;;6.47;;
41693;SDS011;27377;50.666;9.150;2022-08-05T07:15:33;13.43;;;7.15;;
41693;SDS011;27377;50.666;9.150;2022-08-05T07:18:36;13.68;;;6.68;;
41693;SDS011;27377;50.666;9.150;2022-08-05T07:21:20;9.30;;;6.63;;
41693;SDS011;27377;50.666;9.150;2022-08-05T07:24:04;9.68;;;5.80;;
41693;SDS011;27377;50.666;9.150;2022-08-05T07:26:48;8.82;;;6.20;;
41693;SDS011;27377;50.666;9.150;2022-08-05T07:29:33;10.38;;;6.60;;
41693;SDS011;27377;50.666;9.150;2022-08-05T07:32:17;10.13;;;6.20;;
41693;SDS011;27377;50.666;9.150;2022-08-05T07:35:06;8.45;;;5.70;;
41693;SDS011;27377;50.666;9.150;2022-08-05T07:37:54;9.23;;;6.30;;
41693;SDS011;27377;50.666;9.150;2022-08-05T07:40:39;11.17;;;6.40;;
41693;SDS011;27377;50.666;9.150;2022-08-05T07:43:23;9.25;;;6.00;;
41693;SDS011;27377;50.666;9.150;2022-08-05T07:46:07;8.77;;;5.35;;
41693;SDS011;27377;50.666;9.150;2022-08-05T07:48:51;7.93;;;5.45;;
41693;SDS011;27377;50.666;9.150;2022-08-05T07:51:36;9.70;;;5.30;;
41693;SDS011;27377;50.666;9.150;2022-08-05T07:54:21;8.60;;;5.40;;
41693;SDS011;27377;50.666;9.150;2022-08-05T07:57:08;8.13;;;4.93;;
41693;SDS011;27377;50.666;9.150;2022-08-05T07:59:53;7.30;;;4.10;;
41693;SDS011;27377;50.666;9.150;2022-08-05T08:02:37;6.53;;;3.75;;
41693;SDS011;27377;50.666;9.150;2022-08-05T08:05:21;6.70;;;4.13;;
41693;SDS011;27377;50.666;9.150;2022-08-05T08:08:05;6.88;;;3.90;;
41693;SDS011;27377;50.666;9.150;2022-08-05T08:10:49;8.60;;;4.47;;
41693;SDS011;27377;50.666;9.150;2022-08-05T08:13:33;7.57;;;4.40;;
41693;SDS011;27377;50.666;9.150;2022-08-05T08:16:17;7.90;;;4.32;;
41693;SDS011;27377;50.666;9.150;2022-08-05T08:19:01;7.20;;;4.20;;
41693;SDS011;27377;50.666;9.150;2022-08-05T08:21:45;7.18;;;4.63;;
41693;SDS011;27377;50.666;9.150;2022-08-05T08:24:29;8.07;;;4.53;;
41693;SDS011;27377;50.666;9.150;2022-08-05T08:27:14;6.93;;;4.40;;
41693;SDS011;27377;50.666;9.150;2022-08-05T08:29:58;9.07;;;4.65;;
41693;SDS011;27377;50.666;9.150;2022-08-05T08:32:42;8.27;;;4.13;;
41693;SDS011;27377;50.666;9.150;2022-08-05T08:35:26;8.07;;;4.13;;
41693;SDS011;27377;50.666;9.150;2022-08-05T08:38:10;6.60;;;3.85;;
41693;SDS011;27377;50.666;9.150;2022-08-05T08:40:56;6.47;;;3.80;;
41693;SDS011;27377;50.666;9.150;2022-08-05T08:43:41;6.85;;;3.60;;
41693;SDS011;27377;50.666;9.150;2022-08-05T08:46:28;7.05;;;3.95;;
41693;SDS011;27377;50.666;9.150;2022-08-05T08:49:15;7.95;;;4.13;;
41693;SDS011;27377;50.666;9.150;2022-08-05T08:52:10;8.63;;;4.20;;
41693;SDS011;27377;50.666;9.150;2022-08-05T08:54:56;7.30;;;4.22;;
41693;SDS011;27377;50.666;9.150;2022-08-05T08:57:41;7.67;;;4.00;;
41693;SDS011;27377;50.666;9.150;2022-08-05T09:00:25;5.60;;;3.90;;
41693;SDS011;27377;50.666;9.150;2022-08-05T09:03:10;7.38;;;4.20;;
41693;SDS011;27377;50.666;9.150;2022-08-05T09:05:55;6.97;;;4.00;;
41693;SDS011;27377;50.666;9.150;2022-08-05T09:08:39;9.77;;;4.00;;
41693;SDS011;27377;50.666;9.150;2022-08-05T09:11:23;9.02;;;4.25;;
41693;SDS011;27377;50.666;9.150;2022-08-05T09:14:07;8.55;;;4.43;;
41693;SDS011;27377;50.666;9.150;2022-08-05T09:16:51;6.30;;;3.97;;
41693;SDS011;27377;50.666;9.150;2022-08-05T09:19:35;6.00;;;4.03;;
41693;SDS011;27377;50.666;9.150;2022-08-05T09:22:20;8.18;;;4.00;;
41693;SDS011;27377;50.666;9.150;2022-08-05T09:25:04;8.15;;;4.40;;
41693;SDS011;27377;50.666;9.150;2022-08-05T09:27:48;7.47;;;4.10;;
41693;SDS011;27377;50.666;9.150;2022-08-05T09:30:34;8.90;;;4.27;;
41693;SDS011;27377;50.666;9.150;2022-08-05T09:33:18;7.75;;;4.50;;
41693;SDS011;27377;50.666;9.150;2022-08-05T09:36:03;7.57;;;4.40;;
41693;SDS011;27377;50.666;9.150;2022-08-05T09:38:58;8.07;;;4.28;;
41693;SDS011;27377;50.666;9.150;2022-08-05T09:41:59;7.85;;;4.57;;
41693;SDS011;27377;50.666;9.150;2022-08-05T09:44:47;7.45;;;4.30;;
41693;SDS011;27377;50.666;9.150;2022-08-05T09:47:32;6.38;;;4.30;;
41693;SDS011;27377;50.666;9.150;2022-08-05T09:50:18;9.68;;;4.53;;
41693;SDS011;27377;50.666;9.150;2022-08-05T09:53:03;8.18;;;4.57;;
41693;SDS011;27377;50.666;9.150;2022-08-05T09:55:51;6.97;;;4.20;;
41693;SDS011;27377;50.666;9.150;2022-08-05T09:58:39;8.13;;;4.07;;
41693;SDS011;27377;50.666;9.150;2022-08-05T10:01:23;5.53;;;3.58;;
41693;SDS011;27377;50.666;9.150;2022-08-05T10:04:08;6.47;;;3.50;;
41693;SDS011;27377;50.666;9.150;2022-08-05T10:06:56;4.43;;;2.67;;
41693;SDS011;27377;50.666;9.150;2022-08-05T10:09:41;6.15;;;2.72;;
41693;SDS011;27377;50.666;9.150;2022-08-05T10:12:43;4.57;;;2.50;;
41693;SDS011;27377;50.666;9.150;2022-08-05T10:15:38;4.60;;;2.58;;
41693;SDS011;27377;50.666;9.150;2022-08-05T10:18:23;5.43;;;2.60;;
41693;SDS011;27377;50.666;9.150;2022-08-05T10:21:09;4.70;;;2.53;;
41693;SDS011;27377;50.666;9.150;2022-08-05T10:23:54;5.10;;;3.00;;
41693;SDS011;27377;50.666;9.150;2022-08-05T10:26:39;5.20;;;2.90;;
41693;SDS011;27377;50.666;9.150;2022-08-05T10:29:25;4.65;;;2.80;;
41693;SDS011;27377;50.666;9.150;2022-08-05T10:32:11;4.60;;;2.90;;
41693;SDS011;27377;50.666;9.150;2022-08-05T10:34:56;5.47;;;3.05;;
41693;SDS011;27377;50.666;9.150;2022-08-05T10:37:41;4.60;;;3.00;;
41693;SDS011;27377;50.666;9.150;2022-08-05T10:40:33;5.50;;;2.80;;
41693;SDS011;27377;50.666;9.150;2022-08-05T10:46:23;6.28;;;2.88;;
41693;SDS011;27377;50.666;9.150;2022-08-05T10:49:28;5.53;;;3.03;;
41693;SDS011;27377;50.666;9.150;2022-08-05T10:52:12;5.03;;;3.10;;
41693;SDS011;27377;50.666;9.150;2022-08-05T10:55:27;4.20;;;2.92;;
41693;SDS011;27377;50.666;9.150;2022-08-05T10:58:13;5.40;;;2.90;;
41693;SDS011;27377;50.666;9.150;2022-08-05T11:00:59;4.75;;;3.10;;
41693;SDS011;27377;50.666;9.150;2022-08-05T11:09:47;6.45;;;3.30;;
41693;SDS011;27377;50.666;9.150;2022-08-05T11:18:25;5.65;;;2.92;;
41693;SDS011;27377;50.666;9.150;2022-08-05T11:21:30;4.63;;;3.15;;
41693;SDS011;27377;50.666;9.150;2022-08-05T11:24:14;5.35;;;2.97;;
41693;SDS011;27377;50.666;9.150;2022-08-05T11:30:14;5.65;;;3.03;;
41693;SDS011;27377;50.666;9.150;2022-08-05T11:36:15;6.03;;;3.30;;
41693;SDS011;27377;50.666;9.150;2022-08-05T11:39:01;6.40;;;3.20;;
41693;SDS011;27377;50.666;9.150;2022-08-05T11:41:49;5.50;;;2.83;;
41693;SDS011;27377;50.666;9.150;2022-08-05T11:44:35;5.18;;;3.13;;
41693;SDS011;27377;50.666;9.150;2022-08-05T11:47:22;4.72;;;3.03;;
41693;SDS011;27377;50.666;9.150;2022-08-05T11:50:06;5.03;;;3.10;;
41693;SDS011;27377;50.666;9.150;2022-08-05T11:52:50;5.45;;;3.20;;
41693;SDS011;27377;50.666;9.150;2022-08-05T11:55:35;5.28;;;3.28;;
41693;SDS011;27377;50.666;9.150;2022-08-05T11:58:28;5.85;;;3.30;;
41693;SDS011;27377;50.666;9.150;2022-08-05T12:01:23;6.47;;;3.30;;
41693;SDS011;27377;50.666;9.150;2022-08-05T12:04:07;5.05;;;3.10;;
41693;SDS011;27377;50.666;9.150;2022-08-05T12:06:51;6.47;;;3.30;;
41693;SDS011;27377;50.666;9.150;2022-08-05T12:09:37;4.95;;;3.50;;
41693;SDS011;27377;50.666;9.150;2022-08-05T12:12:24;6.70;;;3.45;;
41693;SDS011;27377;50.666;9.150;2022-08-05T12:15:21;5.83;;;3.57;;
41693;SDS011;27377;50.666;9.150;2022-08-05T12:18:05;6.38;;;3.80;;
41693;SDS011;27377;50.666;9.150;2022-08-05T12:20:49;5.47;;;3.97;;
41693;SDS011;27377;50.666;9.150;2022-08-05T12:23:33;6.32;;;3.75;;
41693;SDS011;27377;50.666;9.150;2022-08-05T12:26:17;6.55;;;4.32;;
41693;SDS011;27377;50.666;9.150;2022-08-05T12:29:02;7.40;;;4.43;;
41693;SDS011;27377;50.666;9.150;2022-08-05T12:31:55;6.60;;;5.30;;
41693;SDS011;27377;50.666;9.150;2022-08-05T12:34:42;7.10;;;5.13;;
41693;SDS011;27377;50.666;9.150;2022-08-05T12:37:26;7.53;;;5.80;;
41693;SDS011;27377;50.666;9.150;2022-08-05T12:40:11;8.30;;;5.63;;
41693;SDS011;27377;50.666;9.150;2022-08-05T12:42:55;6.45;;;5.50;;
41693;SDS011;27377;50.666;9.150;2022-08-05T12:45:53;6.80;;;5.27;;
41693;SDS011;27377;50.666;9.150;2022-08-05T12:48:38;7.50;;;5.40;;
41693;SDS011;27377;50.666;9.150;2022-08-05T12:51:22;8.13;;;6.13;;
41693;SDS011;27377;50.666;9.150;2022-08-05T12:54:07;8.00;;;6.50;;
41693;SDS011;27377;50.666;9.150;2022-08-05T12:56:53;9.38;;;6.70;;
41693;SDS011;27377;50.666;9.150;2022-08-05T12:59:45;11.75;;;6.90;;
41693;SDS011;27377;50.666;9.150;2022-08-05T13:02:34;9.50;;;7.90;;
41693;SDS011;27377;50.666;9.150;2022-08-05T13:05:19;10.03;;;8.20;;
41693;SDS011;27377;50.666;9.150;2022-08-05T13:08:04;10.50;;;8.88;;
41693;SDS011;27377;50.666;9.150;2022-08-05T13:10:48;12.30;;;10.88;;
41693;SDS011;27377;50.666;9.150;2022-08-05T13:13:32;14.18;;;11.38;;
41693;SDS011;27377;50.666;9.150;2022-08-05T13:16:21;11.95;;;10.13;;
41693;SDS011;27377;50.666;9.150;2022-08-05T13:19:09;12.15;;;9.63;;
41693;SDS011;27377;50.666;9.150;2022-08-05T13:21:54;12.77;;;10.30;;
41693;SDS011;27377;50.666;9.150;2022-08-05T13:24:38;12.88;;;10.52;;
41693;SDS011;27377;50.666;9.150;2022-08-05T13:27:26;14.45;;;10.82;;
41693;SDS011;27377;50.666;9.150;2022-08-05T13:30:13;14.40;;;11.17;;
41693;SDS011;27377;50.666;9.150;2022-08-05T13:32:58;14.45;;;11.80;;
41693;SDS011;27377;50.666;9.150;2022-08-05T13:35:42;13.10;;;11.70;;
41693;SDS011;27377;50.666;9.150;2022-08-05T13:38:26;14.57;;;12.32;;
41693;SDS011;27377;50.666;9.150;2022-08-05T13:41:10;15.00;;;12.50;;
41693;SDS011;27377;50.666;9.150;2022-08-05T13:43:55;15.98;;;12.70;;
41693;SDS011;27377;50.666;9.150;2022-08-05T13:46:39;13.95;;;12.45;;
41693;SDS011;27377;50.666;9.150;2022-08-05T13:49:23;13.27;;;11.65;;
41693;SDS011;27377;50.666;9.150;2022-08-05T13:52:14;13.20;;;11.73;;
41693;SDS011;27377;50.666;9.150;2022-08-05T13:54:59;13.33;;;11.80;;
41693;SDS011;27377;50.666;9.150;2022-08-05T13:57:43;13.70;;;12.27;;
41693;SDS011;27377;50.666;9.150;2022-08-05T14:00:27;13.35;;;11.88;;
41693;SDS011;27377;50.666;9.150;2022-08-05T14:03:11;13.38;;;10.90;;
41693;SDS011;27377;50.666;9.150;2022-08-05T14:05:55;9.23;;;7.70;;
41693;SDS011;27377;50.666;9.150;2022-08-05T14:08:39;6.90;;;5.50;;
41693;SDS011;27377;50.666;9.150;2022-08-05T14:11:23;6.80;;;4.72;;
41693;SDS011;27377;50.666;9.150;2022-08-05T14:14:07;6.30;;;3.72;;
41693;SDS011;27377;50.666;9.150;2022-08-05T14:16:51;5.97;;;3.20;;
41693;SDS011;27377;50.666;9.150;2022-08-05T14:19:35;4.00;;;2.70;;
41693;SDS011;27377;50.666;9.150;2022-08-05T14:22:19;4.10;;;2.80;;
41693;SDS011;27377;50.666;9.150;2022-08-05T14:25:07;4.32;;;2.55;;
41693;SDS011;27377;50.666;9.150;2022-08-05T14:27:52;3.65;;;2.20;;
41693;SDS011;27377;50.666;9.150;2022-08-05T14:30:36;3.90;;;2.30;;
41693;SDS011;27377;50.666;9.150;2022-08-05T14:33:20;5.05;;;2.65;;
41693;SDS011;27377;50.666;9.150;2022-08-05T14:36:04;4.07;;;2.50;;
41693;SDS011;27377;50.666;9.150;2022-08-05T14:38:49;3.90;;;2.20;;
41693;SDS011;27377;50.666;9.150;2022-08-05T14:41:34;3.92;;;2.00;;
41693;SDS011;27377;50.666;9.150;2022-08-05T14:44:18;3.53;;;2.15;;
41693;SDS011;27377;50.666;9.150;2022-08-05T14:47:02;3.77;;;2.20;;
41693;SDS011;27377;50.666;9.150;2022-08-05T14:49:46;3.65;;;1.90;;
41693;SDS011;27377;50.666;9.150;2022-08-05T14:52:30;3.63;;;1.80;;
41693;SDS011;27377;50.666;9.150;2022-08-05T14:55:14;3.20;;;2.00;;
41693;SDS011;27377;50.666;9.150;2022-08-05T14:57:58;3.80;;;1.80;;
41693;SDS011;27377;50.666;9.150;2022-08-05T15:00:42;4.60;;;1.93;;
41693;SDS011;27377;50.666;9.150;2022-08-05T15:03:26;3.55;;;1.70;;
41693;SDS011;27377;50.666;9.150;2022-08-05T15:06:11;2.47;;;1.60;;
41693;SDS011;27377;50.666;9.150;2022-08-05T15:08:55;3.00;;;1.80;;
41693;SDS011;27377;50.666;9.150;2022-08-05T15:11:39;2.90;;;1.50;;
41693;SDS011;27377;50.666;9.150;2022-08-05T15:14:23;3.58;;;1.67;;
41693;SDS011;27377;50.666;9.150;2022-08-05T15:17:07;2.50;;;1.40;;
41693;SDS011;27377;50.666;9.150;2022-08-05T15:19:51;3.25;;;1.50;;
41693;SDS011;27377;50.666;9.150;2022-08-05T15:22:35;2.88;;;1.40;;
41693;SDS011;27377;50.666;9.150;2022-08-05T15:25:21;3.03;;;1.30;;
41693;SDS011;27377;50.666;9.150;2022-08-05T15:28:08;2.10;;;1.30;;
41693;SDS011;27377;50.666;9.150;2022-08-05T15:30:52;2.55;;;1.10;;
41693;SDS011;27377;50.666;9.150;2022-08-05T15:33:36;3.33;;;1.27;;
41693;SDS011;27377;50.666;9.150;2022-08-05T15:36:20;3.03;;;1.25;;
41693;SDS011;27377;50.666;9.150;2022-08-05T15:39:04;1.88;;;1.10;;
41693;SDS011;27377;50.666;9.150;2022-08-05T15:41:48;2.83;;;1.20;;
41693;SDS011;27377;50.666;9.150;2022-08-05T15:44:32;1.77;;;0.93;;
41693;SDS011;27377;50.666;9.150;2022-08-05T15:47:23;2.22;;;1.17;;
41693;SDS011;27377;50.666;9.150;2022-08-05T15:50:07;2.58;;;1.08;;
41693;SDS011;27377;50.666;9.150;2022-08-05T15:52:52;4.45;;;1.20;;
41693;SDS011;27377;50.666;9.150;2022-08-05T15:55:36;3.07;;;1.10;;
41693;SDS011;27377;50.666;9.150;2022-08-05T15:58:20;4.60;;;1.15;;
41693;SDS011;27377;50.666;9.150;2022-08-05T16:01:04;5.07;;;1.15;;
41693;SDS011;27377;50.666;9.150;2022-08-05T16:03:50;2.22;;;1.05;;
41693;SDS011;27377;50.666;9.150;2022-08-05T16:06:34;2.70;;;1.00;;
41693;SDS011;27377;50.666;9.150;2022-08-05T16:09:19;3.22;;;1.27;;
41693;SDS011;27377;50.666;9.150;2022-08-05T16:12:03;4.35;;;1.27;;
41693;SDS011;27377;50.666;9.150;2022-08-05T16:14:47;3.55;;;1.20;;
41693;SDS011;27377;50.666;9.150;2022-08-05T16:17:31;3.97;;;1.08;;
41693;SDS011;27377;50.666;9.150;2022-08-05T16:20:15;2.60;;;1.00;;
41693;SDS011;27377;50.666;9.150;2022-08-05T16:22:59;3.87;;;1.00;;
41693;SDS011;27377;50.666;9.150;2022-08-05T16:25:43;2.92;;;0.90;;
41693;SDS011;27377;50.666;9.150;2022-08-05T16:28:27;4.10;;;1.00;;
41693;SDS011;27377;50.666;9.150;2022-08-05T16:31:11;2.72;;;0.95;;
41693;SDS011;27377;50.666;9.150;2022-08-05T16:33:56;3.90;;;0.90;;
41693;SDS011;27377;50.666;9.150;2022-08-05T16:36:40;3.08;;;0.90;;
41693;SDS011;27377;50.666;9.150;2022-08-05T16:39:24;2.03;;;0.80;;
41693;SDS011;27377;50.666;9.150;2022-08-05T16:42:08;3.22;;;0.95;;
41693;SDS011;27377;50.666;9.150;2022-08-05T16:44:52;3.13;;;0.90;;
41693;SDS011;27377;50.666;9.150;2022-08-05T16:47:36;2.83;;;1.00;;
41693;SDS011;27377;50.666;9.150;2022-08-05T16:50:20;3.03;;;0.90;;
41693;SDS011;27377;50.666;9.150;2022-08-05T16:53:04;3.80;;;1.00;;
41693;SDS011;27377;50.666;9.150;2022-08-05T16:55:49;2.45;;;0.80;;
41693;SDS011;27377;50.666;9.150;2022-08-05T16:58:32;2.55;;;0.90;;
41693;SDS011;27377;50.666;9.150;2022-08-05T17:01:17;4.40;;;0.93;;
41693;SDS011;27377;50.666;9.150;2022-08-05T17:04:01;4.10;;;1.10;;
41693;SDS011;27377;50.666;9.150;2022-08-05T17:06:46;3.15;;;1.00;;